sensor_id;sensor_type;location;lat;lon;timestamp;temperature;humidity
54158;DHT22;40065;49.894;10.358;2024-01-15T00:01:42;-2.90;99.90
54158;DHT22;40065;49.894;10.358;2024-01-15T00:06:45;-2.80;99.90
54158;DHT22;40065;49.894;10.358;2024-01-15T00:11:47;-2.90;99.90
54158;DHT22;40065;49.894;10.358;2024-01-15T00:16:49;-2.90;99.90
54158;DHT22;40065;49.894;10.358;2024-01-15T00:21:53;-2.90;99.90
54158;DHT22;40065;49.894;10.358;2024-01-15T00:26:55;-2.90;99.90
54158;DHT22;40065;49.894;10.358;2024-01-15T00:31:57;-2.90;99.90
54158;DHT22;40065;49.894;10.358;2024-01-15T00:36:59;-2.90;99.90
54158;DHT22;40065;49.894;10.358;2024-01-15T00:42:00;-2.90;99.90
54158;DHT22;40065;49.894;10.358;2024-01-15T00:47:02;-2.90;99.90
54158;DHT22;40065;49.894;10.358;2024-01-15T00:52:04;-2.90;99.90
54158;DHT22;40065;49.894;10.358;2024-01-15T00:57:07;-2.90;99.90
54158;DHT22;40065;49.894;10.358;2024-01-15T01:02:09;-3.00;99.90
54158;DHT22;40065;49.894;10.358;2024-01-15T01:07:11;-2.90;99.90
54158;DHT22;40065;49.894;10.358;2024-01-15T01:12:13;-3.00;99.90
54158;DHT22;40065;49.894;10.358;2024-01-15T01:17:15;-3.00;99.90
54158;DHT22;40065;49.894;10.358;2024-01-15T01:22:16;-3.00;99.90
54158;DHT22;40065;49.894;10.358;2024-01-15T01:27:18;-2.90;99.90
54158;DHT22;40065;49.894;10.358;2024-01-15T01:32:20;-2.90;99.90
54158;DHT22;40065;49.894;10.358;2024-01-15T01:37:22;-2.90;99.90
54158;DHT22;40065;49.894;10.358;2024-01-15T01:42:24;-2.90;99.90
54158;DHT22;40065;49.894;10.358;2024-01-15T01:47:26;-2.90;99.90
54158;DHT22;40065;49.894;10.358;2024-01-15T01:52:28;-2.90;99.90
54158;DHT22;40065;49.894;10.358;2024-01-15T01:57:31;-2.90;99.90
54158;DHT22;40065;49.894;10.358;2024-01-15T02:02:34;-2.80;99.90
54158;DHT22;40065;49.894;10.358;2024-01-15T02:07:36;-2.80;99.90
54158;DHT22;40065;49.894;10.358;2024-01-15T02:12:38;-2.80;99.90
54158;DHT22;40065;49.894;10.358;2024-01-15T02:18:03;-2.80;99.90
54158;DHT22;40065;49.894;10.358;2024-01-15T02:23:10;-2.80;99.90
54158;DHT22;40065;49.894;10.358;2024-01-15T02:28:16;-2.80;99.90
54158;DHT22;40065;49.894;10.358;2024-01-15T02:33:18;-2.70;99.90
54158;DHT22;40065;49.894;10.358;2024-01-15T02:38:20;-2.70;99.90
54158;DHT22;40065;49.894;10.358;2024-01-15T02:43:22;-2.70;99.90
54158;DHT22;40065;49.894;10.358;2024-01-15T02:48:24;-2.70;99.90
54158;DHT22;40065;49.894;10.358;2024-01-15T02:53:26;-2.60;99.90
54158;DHT22;40065;49.894;10.358;2024-01-15T02:58:27;-2.70;99.90
54158;DHT22;40065;49.894;10.358;2024-01-15T03:03:29;-2.60;99.90
54158;DHT22;40065;49.894;10.358;2024-01-15T03:08:31;-2.60;99.90
54158;DHT22;40065;49.894;10.358;2024-01-15T03:13:36;-2.60;99.90
54158;DHT22;40065;49.894;10.358;2024-01-15T03:18:38;-2.60;99.90
54158;DHT22;40065;49.894;10.358;2024-01-15T03:23:40;-2.60;99.90
54158;DHT22;40065;49.894;10.358;2024-01-15T03:28:42;-2.50;99.90
54158;DHT22;40065;49.894;10.358;2024-01-15T03:33:43;-2.50;99.90
54158;DHT22;40065;49.894;10.358;2024-01-15T03:38:45;-2.40;99.90
54158;DHT22;40065;49.894;10.358;2024-01-15T03:43:48;-2.40;99.90
54158;DHT22;40065;49.894;10.358;2024-01-15T03:48:50;-2.40;99.90
54158;DHT22;40065;49.894;10.358;2024-01-15T03:53:52;-2.30;99.90
54158;DHT22;40065;49.894;10.358;2024-01-15T03:58:54;-2.30;99.90
54158;DHT22;40065;49.894;10.358;2024-01-15T04:03:55;-2.30;99.90
54158;DHT22;40065;49.894;10.358;2024-01-15T04:08:58;-2.20;99.90
54158;DHT22;40065;49.894;10.358;2024-01-15T04:14:00;-2.20;99.90
54158;DHT22;40065;49.894;10.358;2024-01-15T04:19:02;-2.20;99.90
54158;DHT22;40065;49.894;10.358;2024-01-15T04:24:04;-2.20;99.90
54158;DHT22;40065;49.894;10.358;2024-01-15T04:29:06;-2.20;99.90
54158;DHT22;40065;49.894;10.358;2024-01-15T04:34:08;-2.10;99.90
54158;DHT22;40065;49.894;10.358;2024-01-15T04:39:10;-2.10;99.90
54158;DHT22;40065;49.894;10.358;2024-01-15T04:44:13;-2.10;99.90
54158;DHT22;40065;49.894;10.358;2024-01-15T04:49:15;-2.00;99.90
54158;DHT22;40065;49.894;10.358;2024-01-15T04:54:17;-2.00;99.90
54158;DHT22;40065;49.894;10.358;2024-01-15T04:59:20;-2.10;99.90
54158;DHT22;40065;49.894;10.358;2024-01-15T05:04:21;-2.00;99.90
54158;DHT22;40065;49.894;10.358;2024-01-15T05:09:23;-2.00;99.90
54158;DHT22;40065;49.894;10.358;2024-01-15T05:14:25;-2.10;99.90
54158;DHT22;40065;49.894;10.358;2024-01-15T05:19:27;-2.00;99.90
54158;DHT22;40065;49.894;10.358;2024-01-15T05:24:29;-2.00;99.90
54158;DHT22;40065;49.894;10.358;2024-01-15T05:29:31;-2.00;99.90
54158;DHT22;40065;49.894;10.358;2024-01-15T05:34:33;-2.00;99.90
54158;DHT22;40065;49.894;10.358;2024-01-15T05:39:35;-1.90;99.90
54158;DHT22;40065;49.894;10.358;2024-01-15T05:44:36;-1.90;99.90
54158;DHT22;40065;49.894;10.358;2024-01-15T05:49:38;-1.90;99.90
54158;DHT22;40065;49.894;10.358;2024-01-15T05:54:40;-1.90;99.90
54158;DHT22;40065;49.894;10.358;2024-01-15T05:59:43;-1.90;99.90
54158;DHT22;40065;49.894;10.358;2024-01-15T06:04:45;-1.90;99.90
54158;DHT22;40065;49.894;10.358;2024-01-15T06:09:47;-1.90;99.90
54158;DHT22;40065;49.894;10.358;2024-01-15T06:14:50;-1.90;99.90
54158;DHT22;40065;49.894;10.358;2024-01-15T06:19:51;-1.90;99.90
54158;DHT22;40065;49.894;10.358;2024-01-15T06:24:53;-1.90;99.90
54158;DHT22;40065;49.894;10.358;2024-01-15T06:29:55;-1.90;99.90
54158;DHT22;40065;49.894;10.358;2024-01-15T06:34:57;-1.90;99.90
54158;DHT22;40065;49.894;10.358;2024-01-15T06:39:59;-1.90;99.90
54158;DHT22;40065;49.894;10.358;2024-01-15T06:45:01;-1.90;99.90
54158;DHT22;40065;49.894;10.358;2024-01-15T06:50:04;-1.90;99.90
54158;DHT22;40065;49.894;10.358;2024-01-15T06:55:08;-1.90;99.90
54158;DHT22;40065;49.894;10.358;2024-01-15T07:00:10;-1.90;99.90
54158;DHT22;40065;49.894;10.358;2024-01-15T07:05:13;-1.80;99.90
54158;DHT22;40065;49.894;10.358;2024-01-15T07:10:15;-1.80;99.90
54158;DHT22;40065;49.894;10.358;2024-01-15T07:15:17;-1.80;99.90
54158;DHT22;40065;49.894;10.358;2024-01-15T07:20:19;-1.80;99.90
54158;DHT22;40065;49.894;10.358;2024-01-15T07:25:21;-1.80;99.90
54158;DHT22;40065;49.894;10.358;2024-01-15T07:30:23;-1.70;99.90
54158;DHT22;40065;49.894;10.358;2024-01-15T07:35:25;-1.70;99.90
54158;DHT22;40065;49.894;10.358;2024-01-15T07:40:27;-1.80;99.90
54158;DHT22;40065;49.894;10.358;2024-01-15T07:45:29;-1.80;99.90
54158;DHT22;40065;49.894;10.358;2024-01-15T07:50:31;-1.70;99.90
54158;DHT22;40065;49.894;10.358;2024-01-15T07:55:33;-1.70;99.90
54158;DHT22;40065;49.894;10.358;2024-01-15T08:00:35;-1.60;99.90
54158;DHT22;40065;49.894;10.358;2024-01-15T08:05:37;-1.60;99.90
54158;DHT22;40065;49.894;10.358;2024-01-15T08:10:38;-1.60;99.90
54158;DHT22;40065;49.894;10.358;2024-01-15T08:15:41;-1.60;99.90
54158;DHT22;40065;49.894;10.358;2024-01-15T08:20:43;-1.50;99.90
54158;DHT22;40065;49.894;10.358;2024-01-15T08:25:45;-1.40;99.90
54158;DHT22;40065;49.894;10.358;2024-01-15T08:30:47;-1.40;99.90
54158;DHT22;40065;49.894;10.358;2024-01-15T08:35:49;-1.20;99.90
54158;DHT22;40065;49.894;10.358;2024-01-15T08:40:51;-1.10;99.90
54158;DHT22;40065;49.894;10.358;2024-01-15T08:45:55;-1.10;99.90
54158;DHT22;40065;49.894;10.358;2024-01-15T08:50:57;-0.90;99.90
54158;DHT22;40065;49.894;10.358;2024-01-15T08:55:59;-1.00;99.90
54158;DHT22;40065;49.894;10.358;2024-01-15T09:01:00;-1.00;99.90
54158;DHT22;40065;49.894;10.358;2024-01-15T09:06:03;-0.90;99.90
54158;DHT22;40065;49.894;10.358;2024-01-15T09:11:05;-1.00;99.90
54158;DHT22;40065;49.894;10.358;2024-01-15T09:16:07;-0.90;99.90
54158;DHT22;40065;49.894;10.358;2024-01-15T09:21:09;-1.00;99.90
54158;DHT22;40065;49.894;10.358;2024-01-15T09:26:11;-1.00;99.90
54158;DHT22;40065;49.894;10.358;2024-01-15T09:31:13;-1.00;99.90
54158;DHT22;40065;49.894;10.358;2024-01-15T09:36:15;-1.00;99.90
54158;DHT22;40065;49.894;10.358;2024-01-15T09:41:17;-0.80;99.90
54158;DHT22;40065;49.894;10.358;2024-01-15T09:46:19;-0.60;99.90
54158;DHT22;40065;49.894;10.358;2024-01-15T09:51:23;-0.70;99.90
54158;DHT22;40065;49.894;10.358;2024-01-15T09:56:25;-0.70;99.90
54158;DHT22;40065;49.894;10.358;2024-01-15T10:01:28;-0.50;99.90
54158;DHT22;40065;49.894;10.358;2024-01-15T10:06:31;-0.60;99.90
54158;DHT22;40065;49.894;10.358;2024-01-15T10:11:34;-0.70;99.90
54158;DHT22;40065;49.894;10.358;2024-01-15T10:16:37;-0.60;99.90
54158;DHT22;40065;49.894;10.358;2024-01-15T10:21:38;-0.70;99.90
54158;DHT22;40065;49.894;10.358;2024-01-15T10:26:40;-0.60;99.90
54158;DHT22;40065;49.894;10.358;2024-01-15T10:31:42;-0.50;99.90
54158;DHT22;40065;49.894;10.358;2024-01-15T10:36:46;-0.40;99.90
54158;DHT22;40065;49.894;10.358;2024-01-15T10:41:50;-0.30;99.90
54158;DHT22;40065;49.894;10.358;2024-01-15T10:46:53;-0.40;99.90
54158;DHT22;40065;49.894;10.358;2024-01-15T10:51:56;-0.40;99.90
54158;DHT22;40065;49.894;10.358;2024-01-15T10:56:58;-0.30;99.90
54158;DHT22;40065;49.894;10.358;2024-01-15T11:02:01;0.20;99.90
54158;DHT22;40065;49.894;10.358;2024-01-15T11:07:03;0.50;99.90
54158;DHT22;40065;49.894;10.358;2024-01-15T11:12:16;0.90;99.90
54158;DHT22;40065;49.894;10.358;2024-01-15T11:17:19;1.80;99.90
54158;DHT22;40065;49.894;10.358;2024-01-15T11:27:46;1.60;99.90
54158;DHT22;40065;49.894;10.358;2024-01-15T11:32:54;1.00;99.90
54158;DHT22;40065;49.894;10.358;2024-01-15T11:37:57;1.00;99.90
54158;DHT22;40065;49.894;10.358;2024-01-15T11:42:59;1.50;99.90
54158;DHT22;40065;49.894;10.358;2024-01-15T11:48:11;2.00;99.90
54158;DHT22;40065;49.894;10.358;2024-01-15T11:53:37;2.50;99.90
54158;DHT22;40065;49.894;10.358;2024-01-15T11:58:42;1.10;99.90
54158;DHT22;40065;49.894;10.358;2024-01-15T12:03:44;1.00;99.90
54158;DHT22;40065;49.894;10.358;2024-01-15T12:08:48;0.90;99.90
54158;DHT22;40065;49.894;10.358;2024-01-15T12:13:50;0.60;99.90
54158;DHT22;40065;49.894;10.358;2024-01-15T12:18:54;0.60;99.90
54158;DHT22;40065;49.894;10.358;2024-01-15T12:23:56;0.50;99.90
54158;DHT22;40065;49.894;10.358;2024-01-15T12:28:58;0.70;99.90
54158;DHT22;40065;49.894;10.358;2024-01-15T12:34:02;0.80;99.90
54158;DHT22;40065;49.894;10.358;2024-01-15T12:39:04;0.70;99.90
54158;DHT22;40065;49.894;10.358;2024-01-15T12:44:06;0.50;99.90
54158;DHT22;40065;49.894;10.358;2024-01-15T12:49:08;0.60;99.90
54158;DHT22;40065;49.894;10.358;2024-01-15T12:54:11;0.70;99.90
54158;DHT22;40065;49.894;10.358;2024-01-15T12:59:13;0.60;99.90
54158;DHT22;40065;49.894;10.358;2024-01-15T13:04:23;0.70;99.90
54158;DHT22;40065;49.894;10.358;2024-01-15T13:09:27;0.70;99.90
54158;DHT22;40065;49.894;10.358;2024-01-15T13:14:29;0.60;99.90
54158;DHT22;40065;49.894;10.358;2024-01-15T13:19:31;0.90;99.90
54158;DHT22;40065;49.894;10.358;2024-01-15T13:24:33;1.10;99.90
54158;DHT22;40065;49.894;10.358;2024-01-15T13:29:35;1.10;99.90
54158;DHT22;40065;49.894;10.358;2024-01-15T13:34:36;0.90;99.90
54158;DHT22;40065;49.894;10.358;2024-01-15T13:39:38;0.70;99.90
54158;DHT22;40065;49.894;10.358;2024-01-15T13:44:40;0.50;99.90
54158;DHT22;40065;49.894;10.358;2024-01-15T13:49:42;0.50;99.90
54158;DHT22;40065;49.894;10.358;2024-01-15T13:54:44;0.40;99.90
54158;DHT22;40065;49.894;10.358;2024-01-15T13:59:51;0.30;99.90
54158;DHT22;40065;49.894;10.358;2024-01-15T14:04:53;0.20;99.90
54158;DHT22;40065;49.894;10.358;2024-01-15T14:09:55;0.30;99.90
54158;DHT22;40065;49.894;10.358;2024-01-15T14:15:00;0.20;99.90
54158;DHT22;40065;49.894;10.358;2024-01-15T14:20:02;0.20;99.90
54158;DHT22;40065;49.894;10.358;2024-01-15T14:25:08;0.30;99.90
54158;DHT22;40065;49.894;10.358;2024-01-15T14:30:10;0.30;99.90
54158;DHT22;40065;49.894;10.358;2024-01-15T14:35:14;0.30;99.90
54158;DHT22;40065;49.894;10.358;2024-01-15T14:40:16;0.40;99.90
54158;DHT22;40065;49.894;10.358;2024-01-15T14:45:19;0.40;99.90
54158;DHT22;40065;49.894;10.358;2024-01-15T14:50:21;0.50;99.90
54158;DHT22;40065;49.894;10.358;2024-01-15T14:55:22;0.40;99.90
54158;DHT22;40065;49.894;10.358;2024-01-15T15:00:27;0.30;99.90
54158;DHT22;40065;49.894;10.358;2024-01-15T15:05:29;0.30;99.90
54158;DHT22;40065;49.894;10.358;2024-01-15T15:10:31;0.40;99.90
54158;DHT22;40065;49.894;10.358;2024-01-15T15:15:33;0.30;99.90
54158;DHT22;40065;49.894;10.358;2024-01-15T15:20:36;0.40;99.90
54158;DHT22;40065;49.894;10.358;2024-01-15T15:25:37;0.40;99.90
54158;DHT22;40065;49.894;10.358;2024-01-15T15:30:39;0.30;99.90
54158;DHT22;40065;49.894;10.358;2024-01-15T15:35:41;0.40;99.90
54158;DHT22;40065;49.894;10.358;2024-01-15T15:40:43;0.30;99.90
54158;DHT22;40065;49.894;10.358;2024-01-15T15:45:45;0.30;99.90
54158;DHT22;40065;49.894;10.358;2024-01-15T15:50:47;0.40;99.90
54158;DHT22;40065;49.894;10.358;2024-01-15T15:55:49;0.30;99.90
54158;DHT22;40065;49.894;10.358;2024-01-15T16:00:51;0.30;99.90
54158;DHT22;40065;49.894;10.358;2024-01-15T16:05:53;0.30;99.90
54158;DHT22;40065;49.894;10.358;2024-01-15T16:10:54;0.40;99.90
54158;DHT22;40065;49.894;10.358;2024-01-15T16:15:57;0.40;99.90
54158;DHT22;40065;49.894;10.358;2024-01-15T16:21:18;0.40;99.90
54158;DHT22;40065;49.894;10.358;2024-01-15T16:26:41;0.30;99.90
54158;DHT22;40065;49.894;10.358;2024-01-15T16:31:44;0.30;99.90
54158;DHT22;40065;49.894;10.358;2024-01-15T16:36:46;0.20;99.90
54158;DHT22;40065;49.894;10.358;2024-01-15T16:41:47;0.20;99.90
54158;DHT22;40065;49.894;10.358;2024-01-15T16:46:49;0.30;99.90
54158;DHT22;40065;49.894;10.358;2024-01-15T16:51:51;0.40;99.90
54158;DHT22;40065;49.894;10.358;2024-01-15T16:56:53;0.40;99.90
54158;DHT22;40065;49.894;10.358;2024-01-15T17:01:55;0.30;99.90
54158;DHT22;40065;49.894;10.358;2024-01-15T17:06:56;0.40;99.90
54158;DHT22;40065;49.894;10.358;2024-01-15T17:11:58;0.50;99.90
54158;DHT22;40065;49.894;10.358;2024-01-15T17:17:00;0.50;99.90
54158;DHT22;40065;49.894;10.358;2024-01-15T17:22:02;0.40;99.90
54158;DHT22;40065;49.894;10.358;2024-01-15T17:27:04;0.50;99.90
54158;DHT22;40065;49.894;10.358;2024-01-15T17:32:06;0.50;99.90
54158;DHT22;40065;49.894;10.358;2024-01-15T17:37:08;0.50;99.90
54158;DHT22;40065;49.894;10.358;2024-01-15T17:42:10;0.50;99.90
54158;DHT22;40065;49.894;10.358;2024-01-15T17:47:12;0.50;99.90
54158;DHT22;40065;49.894;10.358;2024-01-15T17:52:14;0.50;99.90
54158;DHT22;40065;49.894;10.358;2024-01-15T17:57:16;0.50;99.90
54158;DHT22;40065;49.894;10.358;2024-01-15T18:02:17;0.50;99.90
54158;DHT22;40065;49.894;10.358;2024-01-15T18:07:19;0.50;99.90
54158;DHT22;40065;49.894;10.358;2024-01-15T18:12:23;0.50;99.90
54158;DHT22;40065;49.894;10.358;2024-01-15T18:17:25;0.60;99.90
54158;DHT22;40065;49.894;10.358;2024-01-15T18:22:28;0.50;99.90
54158;DHT22;40065;49.894;10.358;2024-01-15T18:27:30;0.50;99.90
54158;DHT22;40065;49.894;10.358;2024-01-15T18:32:32;0.50;99.90
54158;DHT22;40065;49.894;10.358;2024-01-15T18:37:33;0.50;99.90
54158;DHT22;40065;49.894;10.358;2024-01-15T18:42:35;0.50;99.90
54158;DHT22;40065;49.894;10.358;2024-01-15T18:47:37;0.50;99.90
54158;DHT22;40065;49.894;10.358;2024-01-15T18:52:39;0.50;99.90
54158;DHT22;40065;49.894;10.358;2024-01-15T18:57:41;0.60;99.90
54158;DHT22;40065;49.894;10.358;2024-01-15T19:02:43;0.60;99.90
54158;DHT22;40065;49.894;10.358;2024-01-15T19:07:45;0.60;99.90
54158;DHT22;40065;49.894;10.358;2024-01-15T19:12:48;0.70;99.90
54158;DHT22;40065;49.894;10.358;2024-01-15T19:17:50;0.60;99.90
54158;DHT22;40065;49.894;10.358;2024-01-15T19:22:52;0.60;99.90
54158;DHT22;40065;49.894;10.358;2024-01-15T19:27:54;0.70;99.90
54158;DHT22;40065;49.894;10.358;2024-01-15T19:32:56;0.60;99.90
54158;DHT22;40065;49.894;10.358;2024-01-15T19:37:58;0.70;99.90
54158;DHT22;40065;49.894;10.358;2024-01-15T19:43:00;0.70;99.90
54158;DHT22;40065;49.894;10.358;2024-01-15T19:48:03;0.60;99.90
54158;DHT22;40065;49.894;10.358;2024-01-15T19:53:05;0.50;99.90
54158;DHT22;40065;49.894;10.358;2024-01-15T19:58:09;0.50;99.90
54158;DHT22;40065;49.894;10.358;2024-01-15T20:03:11;0.50;99.90
54158;DHT22;40065;49.894;10.358;2024-01-15T20:08:14;0.50;99.90
54158;DHT22;40065;49.894;10.358;2024-01-15T20:13:16;0.50;99.90
54158;DHT22;40065;49.894;10.358;2024-01-15T20:18:18;0.40;99.90
54158;DHT22;40065;49.894;10.358;2024-01-15T20:23:20;0.50;99.90
54158;DHT22;40065;49.894;10.358;2024-01-15T20:28:21;0.40;99.90
54158;DHT22;40065;49.894;10.358;2024-01-15T20:33:24;0.40;99.90
54158;DHT22;40065;49.894;10.358;2024-01-15T20:38:26;0.30;99.90
54158;DHT22;40065;49.894;10.358;2024-01-15T20:43:28;0.10;99.90
54158;DHT22;40065;49.894;10.358;2024-01-15T20:48:30;0.00;99.90
54158;DHT22;40065;49.894;10.358;2024-01-15T20:53:32;0.00;99.90
54158;DHT22;40065;49.894;10.358;2024-01-15T20:58:35;0.00;99.90
54158;DHT22;40065;49.894;10.358;2024-01-15T21:03:36;0.00;99.90
54158;DHT22;40065;49.894;10.358;2024-01-15T21:08:38;0.10;99.90
54158;DHT22;40065;49.894;10.358;2024-01-15T21:13:42;0.20;99.90
54158;DHT22;40065;49.894;10.358;2024-01-15T21:18:44;0.30;99.90
54158;DHT22;40065;49.894;10.358;2024-01-15T21:23:46;0.30;99.90
54158;DHT22;40065;49.894;10.358;2024-01-15T21:28:48;0.10;99.90
54158;DHT22;40065;49.894;10.358;2024-01-15T21:33:50;0.00;99.90
54158;DHT22;40065;49.894;10.358;2024-01-15T21:38:51;-0.10;99.90
54158;DHT22;40065;49.894;10.358;2024-01-15T21:43:53;-0.20;99.90
54158;DHT22;40065;49.894;10.358;2024-01-15T21:48:55;-0.20;99.90
54158;DHT22;40065;49.894;10.358;2024-01-15T21:53:59;-0.20;99.90
54158;DHT22;40065;49.894;10.358;2024-01-15T21:59:01;-0.20;99.90
54158;DHT22;40065;49.894;10.358;2024-01-15T22:04:03;-0.20;99.90
54158;DHT22;40065;49.894;10.358;2024-01-15T22:09:05;-0.10;99.90
54158;DHT22;40065;49.894;10.358;2024-01-15T22:14:07;0.00;99.90
54158;DHT22;40065;49.894;10.358;2024-01-15T22:19:09;0.10;99.90
54158;DHT22;40065;49.894;10.358;2024-01-15T22:24:11;0.10;99.90
54158;DHT22;40065;49.894;10.358;2024-01-15T22:29:13;0.10;99.90
54158;DHT22;40065;49.894;10.358;2024-01-15T22:34:15;0.20;99.90
54158;DHT22;40065;49.894;10.358;2024-01-15T22:39:19;0.30;99.90
54158;DHT22;40065;49.894;10.358;2024-01-15T22:44:21;0.20;99.90
54158;DHT22;40065;49.894;10.358;2024-01-15T22:49:23;0.40;99.90
54158;DHT22;40065;49.894;10.358;2024-01-15T22:54:25;0.40;99.90
54158;DHT22;40065;49.894;10.358;2024-01-15T22:59:27;0.40;99.90
54158;DHT22;40065;49.894;10.358;2024-01-15T23:04:29;0.50;99.90
54158;DHT22;40065;49.894;10.358;2024-01-15T23:09:31;0.40;99.90
54158;DHT22;40065;49.894;10.358;2024-01-15T23:14:34;0.40;99.90
54158;DHT22;40065;49.894;10.358;2024-01-15T23:19:36;0.50;99.90
54158;DHT22;40065;49.894;10.358;2024-01-15T23:24:38;0.40;99.90
54158;DHT22;40065;49.894;10.358;2024-01-15T23:29:40;0.40;99.90
54158;DHT22;40065;49.894;10.358;2024-01-15T23:34:42;0.40;99.90
54158;DHT22;40065;49.894;10.358;2024-01-15T23:39:44;0.40;99.90
54158;DHT22;40065;49.894;10.358;2024-01-15T23:44:45;0.40;99.90
54158;DHT22;40065;49.894;10.358;2024-01-15T23:49:47;0.50;99.90
54158;DHT22;40065;49.894;10.358;2024-01-15T23:54:49;0.40;99.90
54158;DHT22;40065;49.894;10.358;2024-01-15T23:59:51;0.40;99.90
